• Join FlightAware (Why Join?)
  • Login
  • US Flag 
12:37AM EDT


 

Airport Tracker/Info


-or-


 

Live Flight TrackerFlight Track Log ✈ CFS671 ✈ 07-May-2013 ✈ KLMT - KPDX

Flight Track Log - Related Links

Times and Time Zones

All times are in EDT time to prevent confusion due to time zone crossing. See the CFS671 flight status page for this flight to view local times or setup timezone preferences in your user account.

Time Position Orientation Groundspeed Altitude Reporting Facility
EDT Latitude Longitude Course Direction KTS MPH feet Rate Location/Type
07:25PM 42.1425 -121.7289 283° West 40 46 4,000  Level Seattle Center
07:26PM 42.1561 -121.7339 345° North 92 106 4,300 540 Climbing Seattle Center
07:27PM 42.1797 -121.7489 335° Northwest 95 109 5,200 720 Climbing Seattle Center
07:28PM 42.1775 -121.7808 265° West 120 138 5,800 540 Climbing Seattle Center
07:29PM 42.1669 -121.8242 252° West 121 139 6,400 540 Climbing Seattle Center
07:30PM 42.1731 -121.8692 280° West 122 140 6,900 540 Climbing Seattle Center
07:31PM 42.2034 -122.0704 283° West  Level FlightAware Approximate
07:31PM 42.1822 -121.9158 285° West 127 146 7,600  Level Seattle Center
07:32PM 42.1886 -121.9611 281° West 126 145 8,300 540 Climbing Seattle Center
07:33PM 42.1956 -122.0111 281° West 131 151 8,700 600 Climbing Seattle Center
07:34PM 42.2067 -122.0750 283° West 141 162 9,600 540 Climbing Seattle Center
07:35PM 42.2156 -122.1278 283° West 144 166 9,800 180 Climbing Seattle Center
07:36PM 42.2242 -122.1825 282° West 147 169 10,000 60 Climbing Seattle Center
07:37PM 42.2333 -122.2422 282° West 154 177 10,000  Level Seattle Center
07:38PM 42.2447 -122.3017 285° West 160 184 10,000  Level Seattle Center
07:39PM 42.2678 -122.3542 301° West 166 191 10,000  Level Seattle Center
07:40PM 42.2858 -122.4097 294° West 162 186 10,000  Level Seattle Center
07:41PM 42.3069 -122.4647 297° West 164 189 10,000  Level Seattle Center
07:42PM 42.3311 -122.5178 302° West 166 191 10,000  Level Seattle Center
07:43PM 42.3653 -122.5539 322° Northwest 156 180 10,000  Level Seattle Center
07:44PM 42.4003 -122.5861 326° Northwest 153 176 10,000  Level Seattle Center
07:45PM 42.4350 -122.6239 321° Northwest 159 183 10,000  Level Seattle Center
07:46PM 42.4769 -122.6667 323° Northwest 157 181 10,000  Level Seattle Center
07:47PM 42.5108 -122.7053 320° Northwest 159 183 10,000  Level Seattle Center
07:48PM 42.5461 -122.7417 323° Northwest 159 183 10,000  Level Seattle Center
07:49PM 42.5800 -122.7783 321° Northwest 156 180 10,000  Level Seattle Center
07:50PM 42.6136 -122.8150 321° Northwest 156 180 10,000  Level Seattle Center
07:51PM 42.6475 -122.8514 322° Northwest 156 180 10,000  Level Seattle Center
07:52PM 42.6819 -122.8872 323° Northwest 156 180 10,000  Level Seattle Center
07:53PM 42.7169 -122.9225 323° Northwest 157 181 10,000  Level Seattle Center
07:54PM 42.7547 -122.9642 321° Northwest 155 178 10,000  Level Seattle Center
07:55PM 42.7936 -122.9808 343° North 148 170 10,000  Level Seattle Center
07:56PM 42.8353 -122.9850 356° North 150 173 10,000  Level Seattle Center
07:57PM 42.8764 -122.9931 352° North 149 171 10,000  Level Seattle Center
07:58PM 42.9183 -122.9997 353° North 152 175 10,000  Level Seattle Center
07:59PM 42.9600 -123.0056 354° North 152 175 10,000  Level Seattle Center
08:01PM 43.0003 -123.0125 353° North 147 169 10,000  Level Seattle Center
08:02PM 43.0439 -123.0183 354° North 154 177 10,000  Level Seattle Center
08:03PM 43.0850 -123.0275 351° North 151 174 10,000  Level Seattle Center
08:04PM 43.1292 -123.0342 354° North 157 181 10,000  Level Seattle Center
08:05PM 43.1708 -123.0428 351° North 153 176 10,000  Level Seattle Center
08:06PM 43.2144 -123.0497 353° North 156 180 10,000  Level Seattle Center
08:07PM 43.2569 -123.0586 351° North 154 177 10,000  Level Seattle Center
08:08PM 43.2994 -123.0647 354° North 154 177 10,000  Level Seattle Center
08:09PM 43.3500 -123.0750 352° North 152 175 10,000  Level Seattle Center
08:10PM 43.3936 -123.0839 352° North 158 182 10,000  Level Seattle Center
08:11PM 43.4372 -123.0919 352° North 158 182 10,000  Level Seattle Center
08:12PM 43.4808 -123.0989 353° North 157 181 10,000  Level Seattle Center
08:13PM 43.5236 -123.1086 351° North 156 180 10,000  Level Seattle Center
08:14PM 43.5681 -123.1158 353° North 159 183 10,000  Level Seattle Center
08:15PM 43.6114 -123.1247 352° North 158 182 10,000  Level Seattle Center
08:16PM 43.6550 -123.1325 353° North 158 182 10,000  Level Seattle Center
08:17PM 43.7003 -123.1414 352° North 160 184 10,000  Level Seattle Center
08:18PM 43.7439 -123.1506 351° North 160 184 10,000  Level Seattle Center
08:19PM 43.7900 -123.1589 353° North 165 190 10,000  Level Seattle Center
08:20PM 43.8356 -123.1675 352° North 166 191 10,000  Level Seattle Center
08:21PM 43.8814 -123.1764 352° North 166 191 10,000  Level Seattle Center
08:22PM 43.9364 -123.1869 352° North 165 190 10,000  Level Seattle Center
08:23PM 43.9825 -123.1950 353° North 166 191 10,000  Level Seattle Center
08:24PM 44.0278 -123.2044 351° North 164 189 10,000  Level Seattle Center
08:25PM 44.0678 -123.2114 353° North 166 191 10,000  Level Seattle Center
08:26PM 44.1133 -123.2208 352° North 167 192 10,000  Level Seattle Center
08:27PM 44.1683 -123.2314 352° North 166 191 10,000  Level Seattle Center
08:28PM 44.2131 -123.2397 352° North 163 188 10,000  Level Seattle Center
08:29PM 44.2592 -123.2481 353° North 167 192 10,000  Level Seattle Center
08:30PM 44.3064 -123.2544 354° North 170 196 10,000  Level Seattle Center
08:31PM 44.3525 -123.2639 352° North 169 194 10,000  Level Seattle Center
08:32PM 44.3978 -123.2731 352° North 166 191 10,000  Level Seattle Center
08:33PM 44.4439 -123.2822 352° North 166 191 10,000  Level Seattle Center
08:34PM 44.4892 -123.2919 351° North 166 191 10,000  Level Seattle Center
08:35PM 44.5353 -123.2872 North 167 192 10,000  Level Seattle Center
08:36PM 44.5792 -123.2661 19° North 167 192 10,000  Level Seattle Center
08:37PM 44.6244 -123.2503 14° North 168 193 10,000  Level Seattle Center
08:38PM 44.6781 -123.2311 14° North 167 192 10,000  Level Seattle Center
08:39PM 44.7231 -123.2142 15° North 168 193 10,000  Level Seattle Center
08:40PM 44.7672 -123.1972 15° North 167 192 10,000 -180 Level Seattle Center
08:41PM 44.8114 -123.1806 15° North 166 191 9,700 -600 Descending Seattle Center
08:42PM 44.8572 -123.1608 17° North 170 196 8,800 -900 Descending Seattle Center
08:43PM 44.9028 -123.1447 14° North 171 197 8,000 -780 Descending Seattle Center
08:44PM 44.9467 -123.1289 14° North 166 191 7,300 -840 Descending Seattle Center
08:45PM 44.9911 -123.1144 13° North 164 189 6,400 -600 Descending Seattle Center
08:46PM 45.0342 -123.0997 14° North 162 186 6,100 -240 Descending Seattle Center
08:47PM 45.0764 -123.0825 16° North 159 183 6,000 -60 Descending Seattle Center
08:48PM 45.1258 -123.0667 13° North 154 177 6,000  Level Seattle Center
08:49PM 45.1636 -123.0542 13° North 153 176 6,000  Level Seattle Center
08:50PM 45.1936 -123.0422 16° North 152 175 6,000  Level Seattle Center
08:50PM 45.2078 -123.0358 18° North 152 175 6,000 -120 Level Seattle Center
08:51PM 45.2350 -123.0103 33° Northeast 163 188 5,900 -420 Descending Seattle Center
08:51PM 45.2453 -123.0017 31° Northeast 159 183 5,600 -600 Descending Seattle Center
08:52PM 45.2706 -122.9717 40° Northeast 174 200 5,300 -540 Descending Seattle Center
08:52PM 45.2822 -122.9581 39° Northeast 171 197 5,100 -600 Descending Seattle Center
08:53PM 45.3069 -122.9264 42° Northeast 167 192 4,700 -540 Descending Seattle Center
08:53PM 45.3172 -122.9158 36° Northeast 167 192 4,600 -600 Descending Seattle Center
08:54PM 45.3458 -122.8831 39° Northeast 172 198 4,100 -600 Descending Seattle Center
08:54PM 45.3542 -122.8725 42° Northeast 170 196 4,000 -600 Descending Seattle Center
08:55PM 45.3778 -122.8367 47° Northeast 154 177 3,500 -600 Descending Seattle Center
08:55PM 45.3844 -122.8261 48° Northeast 163 188 3,400 -540 Descending Seattle Center
08:56PM 45.4069 -122.7878 50° Northeast 156 180 3,000 -420 Descending Seattle Center
08:56PM 45.4131 -122.7825 31° Northeast 155 178 3,000  Level Seattle Center
08:57PM 45.4364 -122.7514 43° Northeast 141 162 3,000 60 Level Seattle Center
08:57PM 45.4414 -122.7431 49° Northeast 147 169 3,100  Climbing Seattle Center
08:58PM 45.4647 -122.7092 46° Northeast 146 168 3,000 -120 Descending Seattle Center
08:58PM 45.4694 -122.7006 52° Northeast 146 168 3,000 -720 Level Seattle Center
08:59PM 45.5019 -122.6786 25° Northeast 163 188 2,300 -900 Descending Seattle Center
08:59PM 45.5078 -122.6717 40° Northeast 153 176 2,100 -900 Descending Seattle Center
09:00PM 45.5436 -122.6586 14° North 158 182 1,400 -840 Descending Seattle Center
09:00PM 45.5517 -122.6558 14° North 157 181 1,300 -1,020 Descending Seattle Center
09:01PM 45.5761 -122.6267 40° Northeast 123 142 400 -420 Descending Seattle Center
09:01PM 45.5986 -122.6294 355° North 157 181 900 1,560 Climbing Seattle Center
09:03PM 45.5887 -122.5969 54° Northeast  Level Estimated